KFKN/FKN METAR and TAF weather

Enter ICAO airport designator
Station Type Date Time Source
KFKN METAR 2020/09/18 17:35 UTC NOAA

KFKN 181735Z AUTO 34012G16KT 10SM SCT021 BKN029 BKN040 23/20 A2989 RMK AO2 T02290199


Station Type Date Time Source
KFKN Decoded METAR 2020/09/18 17:35 UTC NOAA

Franklin / J B Rose, VA, United States (KFKN) 36-42N 076-54W
Sep 18, 2020 - 01:35 PM EDT / 2020.09.18 1735 UTC
Wind: from the NNW (340 degrees) at 14 MPH (12 KT) gusting to 18 MPH (16 KT):0
Visibility: 10 mile(s):0
Sky conditions: mostly cloudy
Temperature: 73.2 F (22.9 C)
Dew Point: 67.8 F (19.9 C)
Relative Humidity: 83%
Pressure (altimeter): 29.89 in. Hg (1012 hPa)
ob: KFKN 181735Z AUTO 34012G16KT 10SM SCT021 BKN029 BKN040 23/20 A2989 RMK AO2 T02290199
cycle: 17

Station Type Date Time Source
KFKN TAF UTC NOAA

Error!

Example: see airport list